Terminal Aerodrome Forecast
Issued by NWS Charleston, WV

Current Version | Previous Version | Graphics & Text | Print | Product List | Glossary On
Versions: 1 2 3 4 5 6 7 8 9 10 11 12 13 14 15 16 17 18 19 20 21 22 23 24 25
000
FTUS41 KRLX 301700
TAFBKW
TAF
KBKW 301723Z 3018/0118 32006KT P6SM BKN060 BKN090
      TEMPO 3018/3022 6SM -SHRA BKN035
     FM302200 30011G18KT 4SM -SHRA BR BKN040
     FM010000 31010G16KT 3SM SHRA BR VCTS OVC040CB
     FM010300 31009KT 3SM -SHRA BR SCT015 OVC030
     FM010800 30008KT 3SM BR OVC015
     FM011600 33006KT 4SM BR BKN011=

USA.gov is the U.S. government's official web portal to all federal, state and local government web resources and services.